sensor_id;sensor_type;location;lat;lon;timestamp;P1;durP1;ratioP1;P2;durP2;ratioP2
71296;SDS011;59082;50.658;4.608;2023-04-01T00:02:16;3.70;;;1.80;;
71296;SDS011;59082;50.658;4.608;2023-04-01T00:04:42;6.67;;;1.67;;
71296;SDS011;59082;50.658;4.608;2023-04-01T00:07:08;8.50;;;2.10;;
71296;SDS011;59082;50.658;4.608;2023-04-01T00:09:33;8.70;;;1.77;;
71296;SDS011;59082;50.658;4.608;2023-04-01T00:12:00;5.25;;;2.47;;
71296;SDS011;59082;50.658;4.608;2023-04-01T00:14:25;5.30;;;1.97;;
71296;SDS011;59082;50.658;4.608;2023-04-01T00:16:51;6.47;;;2.17;;
71296;SDS011;59082;50.658;4.608;2023-04-01T00:19:17;7.47;;;2.28;;
71296;SDS011;59082;50.658;4.608;2023-04-01T00:21:42;4.33;;;2.00;;
71296;SDS011;59082;50.658;4.608;2023-04-01T00:24:08;5.40;;;2.20;;
71296;SDS011;59082;50.658;4.608;2023-04-01T00:26:33;5.70;;;2.10;;
71296;SDS011;59082;50.658;4.608;2023-04-01T00:28:59;6.00;;;2.20;;
71296;SDS011;59082;50.658;4.608;2023-04-01T00:31:25;12.95;;;3.65;;
71296;SDS011;59082;50.658;4.608;2023-04-01T00:33:51;9.43;;;1.93;;
71296;SDS011;59082;50.658;4.608;2023-04-01T00:36:17;7.17;;;1.27;;
71296;SDS011;59082;50.658;4.608;2023-04-01T00:38:43;12.00;;;3.87;;
71296;SDS011;59082;50.658;4.608;2023-04-01T00:41:10;18.50;;;4.95;;
71296;SDS011;59082;50.658;4.608;2023-04-01T00:43:39;3.38;;;1.73;;
71296;SDS011;59082;50.658;4.608;2023-04-01T00:46:05;3.05;;;0.73;;
71296;SDS011;59082;50.658;4.608;2023-04-01T00:48:32;3.70;;;1.43;;
71296;SDS011;59082;50.658;4.608;2023-04-01T00:51:11;7.70;;;2.05;;
71296;SDS011;59082;50.658;4.608;2023-04-01T00:53:40;6.38;;;2.28;;
71296;SDS011;59082;50.658;4.608;2023-04-01T00:56:10;6.25;;;0.93;;
71296;SDS011;59082;50.658;4.608;2023-04-01T00:58:38;3.03;;;1.90;;
71296;SDS011;59082;50.658;4.608;2023-04-01T01:01:05;3.72;;;1.23;;
71296;SDS011;59082;50.658;4.608;2023-04-01T01:03:31;4.95;;;2.08;;
71296;SDS011;59082;50.658;4.608;2023-04-01T01:11:48;3.58;;;1.25;;
71296;SDS011;59082;50.658;4.608;2023-04-01T01:14:28;6.50;;;2.90;;
71296;SDS011;59082;50.658;4.608;2023-04-01T01:16:58;8.57;;;2.50;;
71296;SDS011;59082;50.658;4.608;2023-04-01T01:19:32;6.00;;;2.40;;
71296;SDS011;59082;50.658;4.608;2023-04-01T01:27:00;6.00;;;2.33;;
71296;SDS011;59082;50.658;4.608;2023-04-01T01:37:22;9.70;;;2.33;;
71296;SDS011;59082;50.658;4.608;2023-04-01T01:39:54;7.93;;;3.58;;
71296;SDS011;59082;50.658;4.608;2023-04-01T01:42:20;12.10;;;3.50;;
71296;SDS011;59082;50.658;4.608;2023-04-01T01:44:46;8.43;;;2.63;;
71296;SDS011;59082;50.658;4.608;2023-04-01T01:47:13;10.48;;;2.63;;
71296;SDS011;59082;50.658;4.608;2023-04-01T01:49:39;9.13;;;2.40;;
71296;SDS011;59082;50.658;4.608;2023-04-01T01:52:06;5.63;;;2.40;;
71296;SDS011;59082;50.658;4.608;2023-04-01T01:54:32;4.93;;;2.03;;
71296;SDS011;59082;50.658;4.608;2023-04-01T01:57:07;3.53;;;1.53;;
71296;SDS011;59082;50.658;4.608;2023-04-01T01:59:35;5.55;;;2.65;;
71296;SDS011;59082;50.658;4.608;2023-04-01T02:02:02;7.80;;;3.50;;
71296;SDS011;59082;50.658;4.608;2023-04-01T02:04:34;9.00;;;3.58;;
71296;SDS011;59082;50.658;4.608;2023-04-01T02:07:01;6.17;;;2.50;;
71296;SDS011;59082;50.658;4.608;2023-04-01T02:09:27;4.80;;;1.58;;
71296;SDS011;59082;50.658;4.608;2023-04-01T02:12:01;4.50;;;2.35;;
71296;SDS011;59082;50.658;4.608;2023-04-01T02:17:04;4.50;;;2.45;;
71296;SDS011;59082;50.658;4.608;2023-04-01T02:19:36;4.00;;;1.23;;
71296;SDS011;59082;50.658;4.608;2023-04-01T02:22:03;4.80;;;1.95;;
71296;SDS011;59082;50.658;4.608;2023-04-01T02:24:31;3.35;;;2.33;;
71296;SDS011;59082;50.658;4.608;2023-04-01T02:26:58;3.25;;;1.92;;
71296;SDS011;59082;50.658;4.608;2023-04-01T02:29:23;3.83;;;1.33;;
71296;SDS011;59082;50.658;4.608;2023-04-01T02:31:53;4.32;;;2.75;;
71296;SDS011;59082;50.658;4.608;2023-04-01T02:34:19;4.65;;;2.85;;
71296;SDS011;59082;50.658;4.608;2023-04-01T02:36:46;5.20;;;2.45;;
71296;SDS011;59082;50.658;4.608;2023-04-01T02:39:12;5.10;;;2.13;;
71296;SDS011;59082;50.658;4.608;2023-04-01T02:41:39;6.10;;;2.30;;
71296;SDS011;59082;50.658;4.608;2023-04-01T02:44:04;5.60;;;2.47;;
71296;SDS011;59082;50.658;4.608;2023-04-01T02:46:30;7.47;;;3.20;;
71296;SDS011;59082;50.658;4.608;2023-04-01T02:48:55;4.97;;;3.47;;
71296;SDS011;59082;50.658;4.608;2023-04-01T02:51:21;9.10;;;2.30;;
71296;SDS011;59082;50.658;4.608;2023-04-01T02:53:46;5.80;;;2.87;;
71296;SDS011;59082;50.658;4.608;2023-04-01T02:56:11;8.40;;;3.33;;
71296;SDS011;59082;50.658;4.608;2023-04-01T02:58:37;8.00;;;3.13;;
71296;SDS011;59082;50.658;4.608;2023-04-01T03:01:02;6.47;;;3.33;;
71296;SDS011;59082;50.658;4.608;2023-04-01T03:03:28;5.17;;;3.23;;
71296;SDS011;59082;50.658;4.608;2023-04-01T03:05:53;7.83;;;3.93;;
71296;SDS011;59082;50.658;4.608;2023-04-01T03:08:21;7.82;;;3.88;;
71296;SDS011;59082;50.658;4.608;2023-04-01T03:10:46;6.37;;;2.87;;
71296;SDS011;59082;50.658;4.608;2023-04-01T03:13:12;11.43;;;4.22;;
71296;SDS011;59082;50.658;4.608;2023-04-01T03:15:37;7.57;;;3.43;;
71296;SDS011;59082;50.658;4.608;2023-04-01T03:18:03;7.00;;;3.00;;
71296;SDS011;59082;50.658;4.608;2023-04-01T03:20:28;9.90;;;3.63;;
71296;SDS011;59082;50.658;4.608;2023-04-01T03:22:53;9.33;;;3.00;;
71296;SDS011;59082;50.658;4.608;2023-04-01T03:25:19;7.28;;;2.80;;
71296;SDS011;59082;50.658;4.608;2023-04-01T03:27:45;7.70;;;3.07;;
71296;SDS011;59082;50.658;4.608;2023-04-01T03:30:10;9.87;;;3.10;;
71296;SDS011;59082;50.658;4.608;2023-04-01T03:32:35;7.32;;;3.00;;
71296;SDS011;59082;50.658;4.608;2023-04-01T03:35:02;6.70;;;2.80;;
71296;SDS011;59082;50.658;4.608;2023-04-01T03:37:27;4.45;;;2.67;;
71296;SDS011;59082;50.658;4.608;2023-04-01T03:39:53;6.20;;;3.10;;
71296;SDS011;59082;50.658;4.608;2023-04-01T03:42:18;7.50;;;3.43;;
71296;SDS011;59082;50.658;4.608;2023-04-01T03:44:44;5.50;;;4.00;;
71296;SDS011;59082;50.658;4.608;2023-04-01T03:47:09;6.53;;;3.80;;
71296;SDS011;59082;50.658;4.608;2023-04-01T03:49:35;9.47;;;4.03;;
71296;SDS011;59082;50.658;4.608;2023-04-01T03:52:00;8.10;;;3.47;;
71296;SDS011;59082;50.658;4.608;2023-04-01T03:54:26;4.17;;;2.30;;
71296;SDS011;59082;50.658;4.608;2023-04-01T03:56:51;4.77;;;3.20;;
71296;SDS011;59082;50.658;4.608;2023-04-01T03:59:17;8.87;;;3.07;;
71296;SDS011;59082;50.658;4.608;2023-04-01T04:01:42;6.27;;;3.30;;
71296;SDS011;59082;50.658;4.608;2023-04-01T04:04:10;6.38;;;3.63;;
71296;SDS011;59082;50.658;4.608;2023-04-01T04:06:35;5.10;;;2.80;;
71296;SDS011;59082;50.658;4.608;2023-04-01T04:09:01;9.80;;;3.92;;
71296;SDS011;59082;50.658;4.608;2023-04-01T04:11:26;6.60;;;3.27;;
71296;SDS011;59082;50.658;4.608;2023-04-01T04:13:52;10.93;;;4.47;;
71296;SDS011;59082;50.658;4.608;2023-04-01T04:16:17;13.20;;;5.07;;
71296;SDS011;59082;50.658;4.608;2023-04-01T04:18:43;8.77;;;4.87;;
71296;SDS011;59082;50.658;4.608;2023-04-01T04:21:11;10.43;;;4.37;;
71296;SDS011;59082;50.658;4.608;2023-04-01T04:23:37;16.13;;;5.75;;
71296;SDS011;59082;50.658;4.608;2023-04-01T04:26:04;12.83;;;6.87;;
71296;SDS011;59082;50.658;4.608;2023-04-01T04:28:29;10.65;;;6.22;;
71296;SDS011;59082;50.658;4.608;2023-04-01T04:30:55;9.37;;;5.10;;
71296;SDS011;59082;50.658;4.608;2023-04-01T04:33:21;9.95;;;5.15;;
71296;SDS011;59082;50.658;4.608;2023-04-01T04:35:46;17.83;;;6.90;;
71296;SDS011;59082;50.658;4.608;2023-04-01T04:38:12;10.55;;;5.93;;
71296;SDS011;59082;50.658;4.608;2023-04-01T04:40:38;13.50;;;6.47;;
71296;SDS011;59082;50.658;4.608;2023-04-01T04:43:03;13.18;;;6.07;;
71296;SDS011;59082;50.658;4.608;2023-04-01T04:45:29;14.07;;;7.23;;
71296;SDS011;59082;50.658;4.608;2023-04-01T04:47:55;11.05;;;5.05;;
71296;SDS011;59082;50.658;4.608;2023-04-01T04:50:20;9.00;;;5.60;;
71296;SDS011;59082;50.658;4.608;2023-04-01T04:52:46;11.50;;;5.60;;
71296;SDS011;59082;50.658;4.608;2023-04-01T04:55:11;11.77;;;6.10;;
71296;SDS011;59082;50.658;4.608;2023-04-01T04:57:37;10.80;;;6.87;;
71296;SDS011;59082;50.658;4.608;2023-04-01T05:00:02;11.57;;;5.40;;
71296;SDS011;59082;50.658;4.608;2023-04-01T05:02:28;9.25;;;5.22;;
71296;SDS011;59082;50.658;4.608;2023-04-01T05:04:53;10.87;;;4.97;;
71296;SDS011;59082;50.658;4.608;2023-04-01T05:07:19;8.38;;;5.70;;
71296;SDS011;59082;50.658;4.608;2023-04-01T05:09:45;7.90;;;4.70;;
71296;SDS011;59082;50.658;4.608;2023-04-01T05:12:11;7.65;;;5.30;;
71296;SDS011;59082;50.658;4.608;2023-04-01T05:14:38;7.82;;;4.00;;
71296;SDS011;59082;50.658;4.608;2023-04-01T05:17:03;6.73;;;3.83;;
71296;SDS011;59082;50.658;4.608;2023-04-01T05:19:29;7.00;;;4.33;;
71296;SDS011;59082;50.658;4.608;2023-04-01T05:21:54;7.60;;;4.05;;
71296;SDS011;59082;50.658;4.608;2023-04-01T05:24:19;6.47;;;3.73;;
71296;SDS011;59082;50.658;4.608;2023-04-01T05:26:45;4.87;;;3.93;;
71296;SDS011;59082;50.658;4.608;2023-04-01T05:29:12;6.27;;;4.47;;
71296;SDS011;59082;50.658;4.608;2023-04-01T05:31:37;5.35;;;3.90;;
71296;SDS011;59082;50.658;4.608;2023-04-01T05:34:03;7.17;;;3.73;;
71296;SDS011;59082;50.658;4.608;2023-04-01T05:36:28;6.25;;;3.97;;
71296;SDS011;59082;50.658;4.608;2023-04-01T05:38:56;4.83;;;4.00;;
71296;SDS011;59082;50.658;4.608;2023-04-01T05:41:22;5.82;;;3.22;;
71296;SDS011;59082;50.658;4.608;2023-04-01T05:43:47;4.97;;;3.37;;
71296;SDS011;59082;50.658;4.608;2023-04-01T05:46:12;9.43;;;4.10;;
71296;SDS011;59082;50.658;4.608;2023-04-01T05:48:38;4.90;;;2.97;;
71296;SDS011;59082;50.658;4.608;2023-04-01T05:51:04;5.10;;;2.87;;
71296;SDS011;59082;50.658;4.608;2023-04-01T05:53:29;5.22;;;2.92;;
71296;SDS011;59082;50.658;4.608;2023-04-01T05:55:55;5.97;;;3.67;;
71296;SDS011;59082;50.658;4.608;2023-04-01T05:58:20;4.85;;;3.20;;
71296;SDS011;59082;50.658;4.608;2023-04-01T06:00:45;6.13;;;2.70;;
71296;SDS011;59082;50.658;4.608;2023-04-01T06:03:11;7.13;;;3.90;;
71296;SDS011;59082;50.658;4.608;2023-04-01T06:05:40;12.23;;;5.43;;
71296;SDS011;59082;50.658;4.608;2023-04-01T06:08:10;8.02;;;3.33;;
71296;SDS011;59082;50.658;4.608;2023-04-01T06:10:39;9.13;;;3.88;;
71296;SDS011;59082;50.658;4.608;2023-04-01T06:13:08;8.00;;;3.83;;
71296;SDS011;59082;50.658;4.608;2023-04-01T06:18:45;7.18;;;4.00;;
71296;SDS011;59082;50.658;4.608;2023-04-01T06:26:24;8.85;;;4.63;;
71296;SDS011;59082;50.658;4.608;2023-04-01T06:36:43;8.53;;;3.67;;
71296;SDS011;59082;50.658;4.608;2023-04-01T06:44:31;6.20;;;3.23;;
71296;SDS011;59082;50.658;4.608;2023-04-01T06:47:36;8.00;;;3.20;;
71296;SDS011;59082;50.658;4.608;2023-04-01T06:50:07;6.07;;;4.07;;
71296;SDS011;59082;50.658;4.608;2023-04-01T06:55:36;6.85;;;3.05;;
71296;SDS011;59082;50.658;4.608;2023-04-01T06:58:05;4.87;;;3.37;;
71296;SDS011;59082;50.658;4.608;2023-04-01T07:00:35;6.75;;;3.78;;
71296;SDS011;59082;50.658;4.608;2023-04-01T07:03:06;5.28;;;3.50;;
71296;SDS011;59082;50.658;4.608;2023-04-01T07:05:35;7.25;;;3.42;;
71296;SDS011;59082;50.658;4.608;2023-04-01T07:08:04;5.33;;;3.60;;
71296;SDS011;59082;50.658;4.608;2023-04-01T07:12:56;5.27;;;3.90;;
71296;SDS011;59082;50.658;4.608;2023-04-01T07:15:28;6.80;;;3.95;;
71296;SDS011;59082;50.658;4.608;2023-04-01T07:17:57;6.90;;;4.05;;
71296;SDS011;59082;50.658;4.608;2023-04-01T07:20:26;7.60;;;3.42;;
71296;SDS011;59082;50.658;4.608;2023-04-01T07:22:57;7.17;;;3.57;;
71296;SDS011;59082;50.658;4.608;2023-04-01T07:27:50;9.10;;;3.95;;
71296;SDS011;59082;50.658;4.608;2023-04-01T07:30:19;10.32;;;4.10;;
71296;SDS011;59082;50.658;4.608;2023-04-01T07:32:49;8.90;;;5.05;;
71296;SDS011;59082;50.658;4.608;2023-04-01T07:37:55;4.97;;;3.45;;
71296;SDS011;59082;50.658;4.608;2023-04-01T07:40:27;8.32;;;4.85;;
71296;SDS011;59082;50.658;4.608;2023-04-01T07:45:31;7.32;;;5.40;;
71296;SDS011;59082;50.658;4.608;2023-04-01T07:48:37;6.27;;;3.67;;
71296;SDS011;59082;50.658;4.608;2023-04-01T07:51:09;8.18;;;4.18;;
71296;SDS011;59082;50.658;4.608;2023-04-01T07:53:43;8.10;;;3.72;;
71296;SDS011;59082;50.658;4.608;2023-04-01T08:01:39;5.43;;;3.33;;
71296;SDS011;59082;50.658;4.608;2023-04-01T08:14:48;6.82;;;4.28;;
71296;SDS011;59082;50.658;4.608;2023-04-01T08:22:23;7.88;;;3.80;;
71296;SDS011;59082;50.658;4.608;2023-04-01T08:24:50;6.65;;;2.90;;
71296;SDS011;59082;50.658;4.608;2023-04-01T08:27:36;5.45;;;3.42;;
71296;SDS011;59082;50.658;4.608;2023-04-01T08:35:24;4.80;;;2.95;;
71296;SDS011;59082;50.658;4.608;2023-04-01T08:37:50;5.90;;;3.50;;
71296;SDS011;59082;50.658;4.608;2023-04-01T08:43:01;5.10;;;3.40;;
71296;SDS011;59082;50.658;4.608;2023-04-01T08:53:22;4.95;;;4.38;;
71296;SDS011;59082;50.658;4.608;2023-04-01T08:58:25;3.43;;;2.60;;
71296;SDS011;59082;50.658;4.608;2023-04-01T09:01:04;4.72;;;3.33;;
71296;SDS011;59082;50.658;4.608;2023-04-01T09:11:19;5.43;;;3.90;;
71296;SDS011;59082;50.658;4.608;2023-04-01T09:13:59;4.95;;;3.75;;
71296;SDS011;59082;50.658;4.608;2023-04-01T09:27:09;3.45;;;2.80;;
71296;SDS011;59082;50.658;4.608;2023-04-01T09:29:49;3.17;;;2.38;;
71296;SDS011;59082;50.658;4.608;2023-04-01T09:32:33;5.00;;;3.78;;
71296;SDS011;59082;50.658;4.608;2023-04-01T09:42:44;4.32;;;2.13;;
71296;SDS011;59082;50.658;4.608;2023-04-01T09:48:02;2.87;;;1.93;;
71296;SDS011;59082;50.658;4.608;2023-04-01T09:53:04;2.22;;;2.03;;
71296;SDS011;59082;50.658;4.608;2023-04-01T09:58:22;2.83;;;2.05;;
71296;SDS011;59082;50.658;4.608;2023-04-01T10:22:39;3.35;;;2.40;;
71296;SDS011;59082;50.658;4.608;2023-04-01T10:37:42;2.87;;;2.17;;
71296;SDS011;59082;50.658;4.608;2023-04-01T10:45:28;4.30;;;2.57;;
71296;SDS011;59082;50.658;4.608;2023-04-01T10:53:19;2.70;;;2.50;;
71296;SDS011;59082;50.658;4.608;2023-04-01T10:58:48;2.60;;;2.40;;
71296;SDS011;59082;50.658;4.608;2023-04-01T11:14:40;2.15;;;1.95;;
71296;SDS011;59082;50.658;4.608;2023-04-01T11:17:19;4.90;;;2.67;;
71296;SDS011;59082;50.658;4.608;2023-04-01T11:22:49;10.60;;;5.78;;
71296;SDS011;59082;50.658;4.608;2023-04-01T11:30:53;2.05;;;1.85;;
71296;SDS011;59082;50.658;4.608;2023-04-01T11:33:39;2.92;;;2.72;;
71296;SDS011;59082;50.658;4.608;2023-04-01T11:36:11;3.58;;;2.85;;
71296;SDS011;59082;50.658;4.608;2023-04-01T11:38:48;3.60;;;2.97;;
71296;SDS011;59082;50.658;4.608;2023-04-01T11:46:39;2.53;;;2.33;;
71296;SDS011;59082;50.658;4.608;2023-04-01T11:52:04;3.43;;;2.70;;
71296;SDS011;59082;50.658;4.608;2023-04-01T11:57:23;3.97;;;2.80;;
71296;SDS011;59082;50.658;4.608;2023-04-01T11:59:56;3.90;;;3.03;;
71296;SDS011;59082;50.658;4.608;2023-04-01T12:02:42;3.33;;;2.92;;
71296;SDS011;59082;50.658;4.608;2023-04-01T12:08:07;3.08;;;2.40;;
71296;SDS011;59082;50.658;4.608;2023-04-01T12:15:57;1.77;;;1.67;;
71296;SDS011;59082;50.658;4.608;2023-04-01T12:23:51;1.07;;;1.03;;
71296;SDS011;59082;50.658;4.608;2023-04-01T12:28:57;1.23;;;1.13;;
71296;SDS011;59082;50.658;4.608;2023-04-01T12:33:54;1.93;;;1.33;;
71296;SDS011;59082;50.658;4.608;2023-04-01T12:44:26;2.30;;;2.05;;
71296;SDS011;59082;50.658;4.608;2023-04-01T12:51:55;3.47;;;2.70;;
71296;SDS011;59082;50.658;4.608;2023-04-01T13:12:36;5.80;;;2.28;;
71296;SDS011;59082;50.658;4.608;2023-04-01T13:22:41;1.98;;;1.80;;
71296;SDS011;59082;50.658;4.608;2023-04-01T13:25:16;2.70;;;2.50;;
71296;SDS011;59082;50.658;4.608;2023-04-01T13:27:45;2.67;;;2.33;;
71296;SDS011;59082;50.658;4.608;2023-04-01T13:42:57;3.13;;;2.83;;
71296;SDS011;59082;50.658;4.608;2023-04-01T13:45:26;3.00;;;2.70;;
71296;SDS011;59082;50.658;4.608;2023-04-01T14:08:42;3.28;;;2.90;;
71296;SDS011;59082;50.658;4.608;2023-04-01T14:16:34;4.43;;;2.75;;
71296;SDS011;59082;50.658;4.608;2023-04-01T14:19:04;2.58;;;2.38;;
71296;SDS011;59082;50.658;4.608;2023-04-01T14:24:23;2.88;;;2.53;;
71296;SDS011;59082;50.658;4.608;2023-04-01T14:27:09;7.60;;;4.43;;
71296;SDS011;59082;50.658;4.608;2023-04-01T14:29:42;2.85;;;2.30;;
71296;SDS011;59082;50.658;4.608;2023-04-01T14:32:24;6.82;;;3.72;;
71296;SDS011;59082;50.658;4.608;2023-04-01T14:35:35;5.95;;;4.32;;
71296;SDS011;59082;50.658;4.608;2023-04-01T14:42:49;3.05;;;2.75;;
71296;SDS011;59082;50.658;4.608;2023-04-01T14:50:17;4.40;;;2.70;;
71296;SDS011;59082;50.658;4.608;2023-04-01T14:52:55;4.72;;;2.42;;
71296;SDS011;59082;50.658;4.608;2023-04-01T14:58:24;5.63;;;3.93;;
71296;SDS011;59082;50.658;4.608;2023-04-01T15:00:55;3.13;;;2.40;;
71296;SDS011;59082;50.658;4.608;2023-04-01T15:08:18;5.45;;;3.67;;
71296;SDS011;59082;50.658;4.608;2023-04-01T15:15:58;2.30;;;1.67;;
71296;SDS011;59082;50.658;4.608;2023-04-01T15:23:49;2.80;;;2.05;;
71296;SDS011;59082;50.658;4.608;2023-04-01T15:28:57;2.80;;;2.60;;
71296;SDS011;59082;50.658;4.608;2023-04-01T15:34:17;2.38;;;1.60;;
71296;SDS011;59082;50.658;4.608;2023-04-01T15:39:10;3.13;;;1.83;;
71296;SDS011;59082;50.658;4.608;2023-04-01T15:46:52;1.47;;;1.37;;
71296;SDS011;59082;50.658;4.608;2023-04-01T15:54:18;1.52;;;0.98;;
71296;SDS011;59082;50.658;4.608;2023-04-01T15:57:08;1.23;;;1.05;;
71296;SDS011;59082;50.658;4.608;2023-04-01T15:59:41;2.15;;;1.10;;
71296;SDS011;59082;50.658;4.608;2023-04-01T16:04:52;1.20;;;0.63;;
71296;SDS011;59082;50.658;4.608;2023-04-01T16:09:56;0.55;;;0.35;;
71296;SDS011;59082;50.658;4.608;2023-04-01T16:12:40;0.60;;;0.60;;
71296;SDS011;59082;50.658;4.608;2023-04-01T16:17:45;1.37;;;0.67;;
71296;SDS011;59082;50.658;4.608;2023-04-01T16:20:15;2.83;;;1.73;;
71296;SDS011;59082;50.658;4.608;2023-04-01T16:23:04;1.67;;;1.58;;
71296;SDS011;59082;50.658;4.608;2023-04-01T16:25:44;1.37;;;1.27;;
71296;SDS011;59082;50.658;4.608;2023-04-01T16:28:19;1.83;;;1.38;;
71296;SDS011;59082;50.658;4.608;2023-04-01T16:30:54;1.35;;;1.25;;
71296;SDS011;59082;50.658;4.608;2023-04-01T16:34:03;4.22;;;1.52;;
71296;SDS011;59082;50.658;4.608;2023-04-01T16:38:45;4.03;;;1.83;;
71296;SDS011;59082;50.658;4.608;2023-04-01T16:41:20;2.42;;;1.40;;
71296;SDS011;59082;50.658;4.608;2023-04-01T16:43:56;2.75;;;2.00;;
71296;SDS011;59082;50.658;4.608;2023-04-01T16:49:07;2.45;;;1.60;;
71296;SDS011;59082;50.658;4.608;2023-04-01T16:51:48;0.90;;;0.90;;
71296;SDS011;59082;50.658;4.608;2023-04-01T16:59:36;2.20;;;1.83;;
71296;SDS011;59082;50.658;4.608;2023-04-01T17:04:31;4.97;;;2.47;;
71296;SDS011;59082;50.658;4.608;2023-04-01T17:07:07;2.10;;;1.90;;
71296;SDS011;59082;50.658;4.608;2023-04-01T17:09:41;5.82;;;2.90;;
71296;SDS011;59082;50.658;4.608;2023-04-01T17:22:47;3.25;;;2.63;;
71296;SDS011;59082;50.658;4.608;2023-04-01T17:37:59;2.45;;;2.35;;
71296;SDS011;59082;50.658;4.608;2023-04-01T17:43:17;2.95;;;1.60;;
71296;SDS011;59082;50.658;4.608;2023-04-01T17:45:49;1.97;;;1.80;;
71296;SDS011;59082;50.658;4.608;2023-04-01T17:58:44;2.42;;;2.22;;
71296;SDS011;59082;50.658;4.608;2023-04-01T18:08:53;3.00;;;2.73;;
71296;SDS011;59082;50.658;4.608;2023-04-01T18:21:49;3.80;;;2.45;;
71296;SDS011;59082;50.658;4.608;2023-04-01T18:24:22;4.90;;;3.03;;
71296;SDS011;59082;50.658;4.608;2023-04-01T18:27:32;4.17;;;2.67;;
71296;SDS011;59082;50.658;4.608;2023-04-01T18:32:13;3.83;;;3.20;;
71296;SDS011;59082;50.658;4.608;2023-04-01T18:37:14;3.60;;;3.30;;
71296;SDS011;59082;50.658;4.608;2023-04-01T18:39:42;12.32;;;9.10;;
71296;SDS011;59082;50.658;4.608;2023-04-01T18:42:17;8.80;;;6.43;;
71296;SDS011;59082;50.658;4.608;2023-04-01T18:45:27;3.37;;;3.07;;
71296;SDS011;59082;50.658;4.608;2023-04-01T18:50:00;3.93;;;3.47;;
71296;SDS011;59082;50.658;4.608;2023-04-01T18:52:34;3.78;;;3.38;;
71296;SDS011;59082;50.658;4.608;2023-04-01T18:57:26;6.20;;;4.20;;
71296;SDS011;59082;50.658;4.608;2023-04-01T18:59:55;5.22;;;4.20;;
71296;SDS011;59082;50.658;4.608;2023-04-01T19:02:35;4.28;;;3.67;;
71296;SDS011;59082;50.658;4.608;2023-04-01T19:09:53;4.07;;;3.20;;
71296;SDS011;59082;50.658;4.608;2023-04-01T19:17:35;8.83;;;5.37;;
71296;SDS011;59082;50.658;4.608;2023-04-01T19:22:39;4.72;;;4.07;;
71296;SDS011;59082;50.658;4.608;2023-04-01T19:28:02;7.97;;;5.38;;
71296;SDS011;59082;50.658;4.608;2023-04-01T19:30:51;4.77;;;4.27;;
71296;SDS011;59082;50.658;4.608;2023-04-01T19:41:43;7.90;;;6.20;;
71296;SDS011;59082;50.658;4.608;2023-04-01T19:44:17;6.00;;;5.10;;
71296;SDS011;59082;50.658;4.608;2023-04-01T19:46:52;8.23;;;4.95;;
71296;SDS011;59082;50.658;4.608;2023-04-01T19:52:23;7.65;;;5.05;;
71296;SDS011;59082;50.658;4.608;2023-04-01T20:03:00;9.53;;;6.90;;
71296;SDS011;59082;50.658;4.608;2023-04-01T20:07:52;9.52;;;6.40;;
71296;SDS011;59082;50.658;4.608;2023-04-01T20:10:32;10.50;;;6.30;;
71296;SDS011;59082;50.658;4.608;2023-04-01T20:13:02;10.45;;;8.00;;
71296;SDS011;59082;50.658;4.608;2023-04-01T20:15:30;11.50;;;8.03;;
71296;SDS011;59082;50.658;4.608;2023-04-01T20:17:57;10.55;;;7.47;;
71296;SDS011;59082;50.658;4.608;2023-04-01T20:20:25;12.02;;;7.47;;
71296;SDS011;59082;50.658;4.608;2023-04-01T20:25:40;9.30;;;6.18;;
71296;SDS011;59082;50.658;4.608;2023-04-01T20:30:54;11.57;;;7.72;;
71296;SDS011;59082;50.658;4.608;2023-04-01T20:33:42;10.25;;;7.60;;
71296;SDS011;59082;50.658;4.608;2023-04-01T20:48:57;10.23;;;7.37;;
71296;SDS011;59082;50.658;4.608;2023-04-01T20:51:29;11.02;;;7.28;;
71296;SDS011;59082;50.658;4.608;2023-04-01T21:05:00;10.50;;;6.80;;
71296;SDS011;59082;50.658;4.608;2023-04-01T21:09:31;8.73;;;6.57;;
71296;SDS011;59082;50.658;4.608;2023-04-01T21:14:45;9.75;;;6.88;;
71296;SDS011;59082;50.658;4.608;2023-04-01T21:25:22;11.85;;;8.10;;
71296;SDS011;59082;50.658;4.608;2023-04-01T21:27:58;10.50;;;7.43;;
71296;SDS011;59082;50.658;4.608;2023-04-01T21:33:06;12.10;;;7.27;;
71296;SDS011;59082;50.658;4.608;2023-04-01T21:43:15;10.00;;;6.40;;
71296;SDS011;59082;50.658;4.608;2023-04-01T22:07:17;12.75;;;7.53;;
71296;SDS011;59082;50.658;4.608;2023-04-01T22:09:51;15.23;;;7.97;;
71296;SDS011;59082;50.658;4.608;2023-04-01T22:12:19;14.53;;;7.17;;
71296;SDS011;59082;50.658;4.608;2023-04-01T22:32:03;11.73;;;7.10;;
71296;SDS011;59082;50.658;4.608;2023-04-01T22:34:42;11.90;;;6.33;;
71296;SDS011;59082;50.658;4.608;2023-04-01T22:38:16;12.05;;;7.00;;
71296;SDS011;59082;50.658;4.608;2023-04-01T22:40:28;9.15;;;5.78;;
71296;SDS011;59082;50.658;4.608;2023-04-01T22:43:04;10.13;;;5.57;;
71296;SDS011;59082;50.658;4.608;2023-04-01T22:45:35;9.77;;;5.47;;
71296;SDS011;59082;50.658;4.608;2023-04-01T22:48:09;9.33;;;5.77;;
71296;SDS011;59082;50.658;4.608;2023-04-01T22:55:32;10.00;;;5.67;;
71296;SDS011;59082;50.658;4.608;2023-04-01T22:58:09;7.80;;;4.78;;
71296;SDS011;59082;50.658;4.608;2023-04-01T23:00:39;10.85;;;6.78;;
71296;SDS011;59082;50.658;4.608;2023-04-01T23:03:18;12.80;;;6.90;;
71296;SDS011;59082;50.658;4.608;2023-04-01T23:05:54;15.73;;;7.53;;
71296;SDS011;59082;50.658;4.608;2023-04-01T23:10:58;19.42;;;8.93;;
71296;SDS011;59082;50.658;4.608;2023-04-01T23:13:37;22.40;;;11.30;;
71296;SDS011;59082;50.658;4.608;2023-04-01T23:16:03;22.58;;;10.75;;
71296;SDS011;59082;50.658;4.608;2023-04-01T23:21:26;27.02;;;12.75;;
71296;SDS011;59082;50.658;4.608;2023-04-01T23:24:05;24.92;;;11.93;;
71296;SDS011;59082;50.658;4.608;2023-04-01T23:26:40;26.10;;;12.38;;
71296;SDS011;59082;50.658;4.608;2023-04-01T23:29:14;20.23;;;9.75;;
71296;SDS011;59082;50.658;4.608;2023-04-01T23:31:41;18.27;;;9.87;;
71296;SDS011;59082;50.658;4.608;2023-04-01T23:36:40;21.02;;;10.98;;
71296;SDS011;59082;50.658;4.608;2023-04-01T23:39:12;23.80;;;11.00;;
71296;SDS011;59082;50.658;4.608;2023-04-01T23:41:42;17.02;;;9.10;;
71296;SDS011;59082;50.658;4.608;2023-04-01T23:44:09;22.80;;;12.70;;
71296;SDS011;59082;50.658;4.608;2023-04-01T23:46:35;18.70;;;9.07;;
71296;SDS011;59082;50.658;4.608;2023-04-01T23:49:02;15.40;;;8.17;;
71296;SDS011;59082;50.658;4.608;2023-04-01T23:51:29;18.63;;;9.60;;
71296;SDS011;59082;50.658;4.608;2023-04-01T23:56:46;13.83;;;7.60;;
71296;SDS011;59082;50.658;4.608;2023-04-01T23:59:17;18.90;;;10.02;;
